Wall, SD

5:05 AM MST on February 23, 2017 (GMT -0700)
MK6V4 | | Change Station
Active Advisory: Winter Storm Warning

Elev 2810 ft 44.00 °N, 102.25 °W | Updated 18 minutes ago

Overcast
Overcast
28.0 °F
Feels Like 17 °F
N
13.0
Wind Variable Wind from NNE
Gusts 17.0 mph

Today
High -- | Low -- °F
--% Chance of Precip.
Yesterday
High -- | Low -- °F
Precip. -- in
Pressure 29.95 in
Visibility 10.0 miles
Clouds Overcast 1100 ft
Windchill 17 °F
Dew Point 25 °F
Humidity 86%
Rainfall 0.00 in
Snow Depth Not available.
6:35 AM 5:29 PM
Waning Crescent, 11% visible
METAR KPHP 231155Z AUTO 04012KT 10SM OVC011 M02/M04 A2990 RMK AO2 SLP142 T10221044 10006 21022 58007
Pressure 29.95 in
Visibility 10.0 miles
Clouds Overcast 1100 ft
Windchill 17 °F
Dew Point 25 °F
Humidity 86%
Rainfall 0.00 in
Snow Depth Not available.
6:35 AM 5:29 PM
Waning Crescent, 11% visible
METAR KPHP 231155Z AUTO 04012KT 10SM OVC011 M02/M04 A2990 RMK AO2 SLP142 T10221044 10006 21022 58007

Get Your Daily Forecast Email!

Thanks for signing up!

Be on the lookout for a verification email in your inbox.

You'll start receiving the daily forecast at 8 AM.

×

10-Day Weather Forecast

Almanac

Astronomy

Feb. 23, 2017 Rise Set
Actual Time
Civil Twilight
Nautical Twilight
Astronomical Twilight
Moon
Length of Visible Light
Length of Day
Tomorrow will be .
, % of the Moon is Illuminated

Today's Extremes

State Highs State Lows

Community

WunderPhotos

Upload Photos

1,962,540 photos uploaded!

WunderBlog® & News

Nearby

Air Quality

  Air Quality AQ Index Pollutant
Not available.

Snow Depth

Station Depth Elevation

Earthquake Activity

City Distance Mag. Time & Date
Minimum magnitude displayed is 2.5.

Coastal Water Temperatures

Place Temperature

Stations

Nearby Weather Stations

Station Location Temp. Windchill Dew Point Humidity Wind Precip. Elev Updated Type
                   

Watches & Warnings

Winter Storm Warning
Issued: 4:21 AM MST Feb. 23, 2017 – National Weather Service

... Winter Storm Warning now in effect until 5 am MST Friday...

* snow will continue to develop this morning and continue through
this evening, tapering off late tonight.

* The heaviest snowfall will occur late this morning through early
evening.

* Total snow accumulations of 4 to 9 inches are expected, the
highest amounts generally to the south and west of Rapid City
and Interstate 90.

* Look for significant reductions in visibility at times.

* Plan on difficult driving conditions... especially during the
evening commute today.


Precautionary/preparedness actions...

A Winter Storm Warning for snow means severe winter weather
conditions are expected. If you must travel... keep an extra
flashlight... food and water in your vehicle in case of an
emergency. The latest Road conditions for the state you are
calling from can be obtained by calling 5 1 1.